WAT4039 MHLM-MGGT
Flight info
| Callsign | WAT4039 |
|---|---|
| Flight time | 1h 2m |
| Altitude | 12000 |
| Route | NAKAN UR644 AUR |
| Aircraft | AEST/L-SDFGRY/S |
Departure
| Time | 2026-04-28 22:15 |
|---|---|
| Airport | Ramón Villeda Morales International Airport (MHLM) |
Arrival
| Time | 2026-04-28 23:18 |
|---|---|
| Airport | La Aurora International Airport (MGGT) |
| Time | Latitude | Longitude | Altitude | Speed | Heading |
|---|---|---|---|---|---|
| 2026-04-28 22:06 | 15.44309 | -87.93542 | 46 ft | 0 kts | 297° |
| 2026-04-28 22:11 | 15.44311 | -87.93543 | 117 ft | 0 kts | 331° |
| 2026-04-28 22:11 | 15.44313 | -87.93543 | 117 ft | 0 kts | 50° |
| 2026-04-28 22:11 | 15.44287 | -87.93496 | 94 ft | 9 kts | 107° |
| 2026-04-28 22:11 | 15.44274 | -87.93412 | 94 ft | 13 kts | 98° |
| 2026-04-28 22:12 | 15.44266 | -87.93361 | 94 ft | 0 kts | 101° |
| 2026-04-28 22:14 | 15.44266 | -87.93359 | 94 ft | 3 kts | 101° |
| 2026-04-28 22:14 | 15.44251 | -87.93284 | 94 ft | 17 kts | 94° |
| 2026-04-28 22:15 | 15.44411 | -87.93114 | 96 ft | 63 kts | 39° |
| 2026-04-28 22:15 | 15.44816 | -87.92749 | 225 ft | 83 kts | 41° |
| 2026-04-28 22:15 | 15.45293 | -87.92334 | 542 ft | 95 kts | 39° |
| 2026-04-28 22:15 | 15.45621 | -87.92049 | 799 ft | 98 kts | 40° |
| 2026-04-28 22:16 | 15.45998 | -87.91733 | 1061 ft | 103 kts | 40° |
| 2026-04-28 22:16 | 15.46572 | -87.91235 | 1382 ft | 109 kts | 39° |
| 2026-04-28 22:16 | 15.47139 | -87.90699 | 1791 ft | 111 kts | 39° |
| 2026-04-28 22:16 | 15.47748 | -87.90209 | 2211 ft | 110 kts | 33° |
| 2026-04-28 22:17 | 15.48372 | -87.89764 | 2539 ft | 109 kts | 32° |
| 2026-04-28 22:17 | 15.48988 | -87.89317 | 2849 ft | 107 kts | 32° |
| 2026-04-28 22:17 | 15.49630 | -87.88949 | 3189 ft | 105 kts | 5° |
| 2026-04-28 22:17 | 15.50294 | -87.89201 | 3526 ft | 109 kts | 313° |
| 2026-04-28 22:18 | 15.50504 | -87.89971 | 3826 ft | 121 kts | 270° |
| 2026-04-28 22:18 | 15.50276 | -87.90816 | 4126 ft | 125 kts | 252° |
| 2026-04-28 22:18 | 15.49957 | -87.91667 | 4440 ft | 128 kts | 252° |
| 2026-04-28 22:18 | 15.49636 | -87.92534 | 4756 ft | 131 kts | 252° |
| 2026-04-28 22:19 | 15.49315 | -87.93435 | 5056 ft | 135 kts | 252° |
| 2026-04-28 22:19 | 15.48999 | -87.94352 | 5389 ft | 137 kts | 252° |
| 2026-04-28 22:19 | 15.48678 | -87.95288 | 5708 ft | 138 kts | 250° |
| 2026-04-28 22:19 | 15.48352 | -87.96231 | 6029 ft | 140 kts | 250° |
| 2026-04-28 22:20 | 15.48012 | -87.97176 | 6345 ft | 140 kts | 248° |
| 2026-04-28 22:20 | 15.47656 | -87.98120 | 6612 ft | 142 kts | 246° |
| 2026-04-28 22:20 | 15.47276 | -87.99085 | 6863 ft | 145 kts | 246° |
| 2026-04-28 22:20 | 15.46883 | -88.00056 | 7121 ft | 146 kts | 246° |
| 2026-04-28 22:21 | 15.46486 | -88.01025 | 7389 ft | 146 kts | 245° |
| 2026-04-28 22:21 | 15.46085 | -88.02002 | 7605 ft | 149 kts | 246° |
| 2026-04-28 22:21 | 15.45680 | -88.02999 | 7833 ft | 151 kts | 246° |
| 2026-04-28 22:21 | 15.45283 | -88.04006 | 8052 ft | 151 kts | 247° |
| 2026-04-28 22:22 | 15.44889 | -88.05020 | 8254 ft | 152 kts | 246° |
| 2026-04-28 22:22 | 15.44500 | -88.06033 | 8459 ft | 152 kts | 248° |
| 2026-04-28 22:22 | 15.44116 | -88.07053 | 8675 ft | 151 kts | 248° |
| 2026-04-28 22:22 | 15.43740 | -88.08074 | 8870 ft | 153 kts | 248° |
| 2026-04-28 22:23 | 15.43355 | -88.09097 | 9041 ft | 152 kts | 248° |
| 2026-04-28 22:23 | 15.42976 | -88.10128 | 9250 ft | 153 kts | 248° |
| 2026-04-28 22:23 | 15.42591 | -88.11153 | 9426 ft | 153 kts | 248° |
| 2026-04-28 22:23 | 15.42188 | -88.12204 | 9525 ft | 159 kts | 247° |
| 2026-04-28 22:24 | 15.41776 | -88.13275 | 9652 ft | 161 kts | 247° |
| 2026-04-28 22:24 | 15.41356 | -88.14356 | 9776 ft | 162 kts | 247° |
| 2026-04-28 22:24 | 15.40930 | -88.15439 | 9911 ft | 163 kts | 246° |
| 2026-04-28 22:24 | 15.40494 | -88.16522 | 10043 ft | 162 kts | 246° |
| 2026-04-28 22:25 | 15.40069 | -88.17594 | 10182 ft | 163 kts | 247° |
| 2026-04-28 22:25 | 15.39647 | -88.18684 | 10310 ft | 163 kts | 248° |
| 2026-04-28 22:25 | 15.39233 | -88.19775 | 10429 ft | 163 kts | 248° |
| 2026-04-28 22:25 | 15.38820 | -88.20871 | 10550 ft | 162 kts | 248° |
| 2026-04-28 22:26 | 15.38407 | -88.21958 | 10661 ft | 163 kts | 249° |
| 2026-04-28 22:26 | 15.37997 | -88.23047 | 10765 ft | 163 kts | 248° |
| 2026-04-28 22:26 | 15.37583 | -88.24140 | 10871 ft | 163 kts | 249° |
| 2026-04-28 22:26 | 15.37168 | -88.25236 | 10979 ft | 163 kts | 249° |
| 2026-04-28 22:27 | 15.36750 | -88.26325 | 11082 ft | 163 kts | 249° |
| 2026-04-28 22:27 | 15.36335 | -88.27419 | 11165 ft | 164 kts | 249° |
| 2026-04-28 22:27 | 15.35912 | -88.28517 | 11249 ft | 164 kts | 249° |
| 2026-04-28 22:27 | 15.35492 | -88.29610 | 11324 ft | 164 kts | 249° |
| 2026-04-28 22:28 | 15.35070 | -88.30710 | 11396 ft | 164 kts | 249° |
| 2026-04-28 22:28 | 15.34648 | -88.31807 | 11463 ft | 164 kts | 249° |
| 2026-04-28 22:28 | 15.34227 | -88.32907 | 11512 ft | 164 kts | 249° |
| 2026-04-28 22:28 | 15.33806 | -88.34009 | 11578 ft | 164 kts | 250° |
| 2026-04-28 22:29 | 15.33387 | -88.35112 | 11641 ft | 165 kts | 250° |
| 2026-04-28 22:29 | 15.32961 | -88.36214 | 11701 ft | 165 kts | 250° |
| 2026-04-28 22:29 | 15.32539 | -88.37316 | 11762 ft | 164 kts | 249° |
| 2026-04-28 22:29 | 15.32116 | -88.38417 | 11807 ft | 165 kts | 249° |
| 2026-04-28 22:30 | 15.31692 | -88.39519 | 11876 ft | 165 kts | 250° |
| 2026-04-28 22:30 | 15.31269 | -88.40620 | 11932 ft | 164 kts | 250° |
| 2026-04-28 22:30 | 15.30847 | -88.41720 | 11974 ft | 164 kts | 250° |
| 2026-04-28 22:30 | 15.30422 | -88.42821 | 12030 ft | 165 kts | 250° |
| 2026-04-28 22:31 | 15.29998 | -88.43919 | 12076 ft | 164 kts | 250° |
| 2026-04-28 22:31 | 15.29569 | -88.45034 | 12059 ft | 170 kts | 250° |
| 2026-04-28 22:31 | 15.29126 | -88.46188 | 12021 ft | 174 kts | 250° |
| 2026-04-28 22:31 | 15.28678 | -88.47360 | 12019 ft | 176 kts | 250° |
| 2026-04-28 22:32 | 15.28225 | -88.48546 | 12022 ft | 178 kts | 250° |
| 2026-04-28 22:32 | 15.27765 | -88.49746 | 12026 ft | 180 kts | 250° |
| 2026-04-28 22:32 | 15.27298 | -88.50953 | 12026 ft | 181 kts | 249° |
| 2026-04-28 22:32 | 15.26831 | -88.52159 | 12030 ft | 181 kts | 249° |
| 2026-04-28 22:33 | 15.26363 | -88.53372 | 12034 ft | 182 kts | 250° |
| 2026-04-28 22:33 | 15.25899 | -88.54574 | 12039 ft | 184 kts | 250° |
| 2026-04-28 22:33 | 15.25418 | -88.55827 | 12050 ft | 191 kts | 250° |
| 2026-04-28 22:33 | 15.24919 | -88.57124 | 12047 ft | 197 kts | 250° |
| 2026-04-28 22:34 | 15.24456 | -88.58469 | 12046 ft | 200 kts | 253° |
| 2026-04-28 22:34 | 15.24012 | -88.59855 | 12043 ft | 204 kts | 253° |
| 2026-04-28 22:34 | 15.23564 | -88.61251 | 12049 ft | 205 kts | 253° |
| 2026-04-28 22:34 | 15.23107 | -88.62656 | 12050 ft | 207 kts | 253° |
| 2026-04-28 22:35 | 15.22642 | -88.64077 | 12054 ft | 209 kts | 252° |
| 2026-04-28 22:35 | 15.22166 | -88.65516 | 12055 ft | 212 kts | 252° |
| 2026-04-28 22:35 | 15.21688 | -88.66958 | 12077 ft | 211 kts | 252° |
| 2026-04-28 22:35 | 15.21208 | -88.68389 | 12091 ft | 214 kts | 252° |
| 2026-04-28 22:36 | 15.20715 | -88.69859 | 12041 ft | 216 kts | 253° |
| 2026-04-28 22:36 | 15.20231 | -88.71333 | 12045 ft | 217 kts | 253° |
| 2026-04-28 22:36 | 15.19744 | -88.72814 | 12043 ft | 218 kts | 253° |
| 2026-04-28 22:36 | 15.19251 | -88.74291 | 12037 ft | 216 kts | 252° |
| 2026-04-28 22:37 | 15.18737 | -88.75758 | 12039 ft | 217 kts | 251° |
| 2026-04-28 22:37 | 15.18223 | -88.77222 | 12045 ft | 217 kts | 251° |
| 2026-04-28 22:37 | 15.17706 | -88.78690 | 12040 ft | 217 kts | 252° |
| 2026-04-28 22:37 | 15.17191 | -88.80157 | 12040 ft | 217 kts | 251° |
| 2026-04-28 22:38 | 15.16680 | -88.81626 | 12038 ft | 217 kts | 252° |
| 2026-04-28 22:38 | 15.16165 | -88.83101 | 12038 ft | 218 kts | 252° |
| 2026-04-28 22:38 | 15.15650 | -88.84576 | 12037 ft | 218 kts | 251° |
| 2026-04-28 22:38 | 15.15137 | -88.86052 | 12036 ft | 218 kts | 252° |
| 2026-04-28 22:39 | 15.14627 | -88.87529 | 12043 ft | 218 kts | 251° |
| 2026-04-28 22:39 | 15.14115 | -88.89004 | 12040 ft | 217 kts | 251° |
| 2026-04-28 22:39 | 15.13595 | -88.90475 | 12047 ft | 219 kts | 251° |
| 2026-04-28 22:39 | 15.13077 | -88.91953 | 12053 ft | 218 kts | 252° |
| 2026-04-28 22:40 | 15.12559 | -88.93428 | 12043 ft | 218 kts | 252° |
| 2026-04-28 22:40 | 15.12049 | -88.94896 | 12045 ft | 217 kts | 252° |
| 2026-04-28 22:40 | 15.11539 | -88.96366 | 12049 ft | 216 kts | 251° |
| 2026-04-28 22:40 | 15.11029 | -88.97833 | 12055 ft | 216 kts | 251° |
| 2026-04-28 22:41 | 15.10526 | -88.99276 | 12061 ft | 216 kts | 251° |
| 2026-04-28 22:41 | 15.10010 | -89.00742 | 12064 ft | 217 kts | 251° |
| 2026-04-28 22:41 | 15.09494 | -89.02210 | 12064 ft | 218 kts | 251° |
| 2026-04-28 22:41 | 15.08979 | -89.03682 | 12062 ft | 216 kts | 251° |
| 2026-04-28 22:42 | 15.08464 | -89.05147 | 12074 ft | 217 kts | 251° |
| 2026-04-28 22:42 | 15.07946 | -89.06626 | 12061 ft | 219 kts | 251° |
| 2026-04-28 22:42 | 15.07434 | -89.08101 | 12064 ft | 218 kts | 251° |
| 2026-04-28 22:42 | 15.06911 | -89.09577 | 12069 ft | 219 kts | 251° |
| 2026-04-28 22:43 | 15.06392 | -89.11055 | 12062 ft | 218 kts | 252° |
| 2026-04-28 22:43 | 15.05871 | -89.12525 | 12069 ft | 219 kts | 252° |
| 2026-04-28 22:43 | 15.05356 | -89.14004 | 12066 ft | 217 kts | 252° |
| 2026-04-28 22:43 | 15.04835 | -89.15475 | 12067 ft | 218 kts | 251° |
| 2026-04-28 22:44 | 15.04322 | -89.16949 | 12080 ft | 217 kts | 252° |
| 2026-04-28 22:44 | 15.03817 | -89.18421 | 12080 ft | 218 kts | 252° |
| 2026-04-28 22:44 | 15.03304 | -89.19903 | 12071 ft | 218 kts | 251° |
| 2026-04-28 22:44 | 15.02782 | -89.21375 | 12075 ft | 219 kts | 252° |
| 2026-04-28 22:45 | 15.02269 | -89.22858 | 12070 ft | 219 kts | 252° |
| 2026-04-28 22:45 | 15.01750 | -89.24334 | 12076 ft | 219 kts | 252° |
| 2026-04-28 22:45 | 15.01239 | -89.25816 | 12077 ft | 218 kts | 253° |
| 2026-04-28 22:45 | 15.00908 | -89.26792 | 12085 ft | 218 kts | 252° |
| 2026-04-28 22:46 | 15.00406 | -89.28275 | 12084 ft | 218 kts | 252° |
| 2026-04-28 22:46 | 14.99908 | -89.29753 | 12080 ft | 217 kts | 253° |
| 2026-04-28 22:46 | 14.99404 | -89.31230 | 12084 ft | 218 kts | 253° |
| 2026-04-28 22:46 | 14.98898 | -89.32714 | 12081 ft | 219 kts | 252° |
| 2026-04-28 22:47 | 14.98387 | -89.34199 | 12072 ft | 219 kts | 252° |
| 2026-04-28 22:47 | 14.97877 | -89.35687 | 12073 ft | 218 kts | 252° |
| 2026-04-28 22:47 | 14.97369 | -89.37169 | 12075 ft | 218 kts | 252° |
| 2026-04-28 22:47 | 14.96865 | -89.38642 | 12075 ft | 218 kts | 252° |
| 2026-04-28 22:48 | 14.96349 | -89.40123 | 12072 ft | 219 kts | 252° |
| 2026-04-28 22:48 | 14.95840 | -89.41599 | 12078 ft | 217 kts | 253° |
| 2026-04-28 22:48 | 14.95331 | -89.43074 | 12084 ft | 218 kts | 253° |
| 2026-04-28 22:48 | 14.94830 | -89.44548 | 12088 ft | 218 kts | 253° |
| 2026-04-28 22:49 | 14.94326 | -89.46023 | 12084 ft | 216 kts | 252° |
| 2026-04-28 22:49 | 14.93819 | -89.47497 | 12084 ft | 218 kts | 252° |
| 2026-04-28 22:49 | 14.93318 | -89.48968 | 12081 ft | 217 kts | 253° |
| 2026-04-28 22:49 | 14.92820 | -89.50431 | 12084 ft | 216 kts | 252° |
| 2026-04-28 22:50 | 14.92317 | -89.51899 | 12084 ft | 216 kts | 252° |
| 2026-04-28 22:50 | 14.91811 | -89.53361 | 12085 ft | 216 kts | 253° |
| 2026-04-28 22:50 | 14.91299 | -89.54822 | 12085 ft | 216 kts | 252° |
| 2026-04-28 22:50 | 14.90789 | -89.56283 | 12086 ft | 216 kts | 252° |
| 2026-04-28 22:51 | 14.90280 | -89.57752 | 12085 ft | 217 kts | 253° |
| 2026-04-28 22:51 | 14.89781 | -89.59222 | 12087 ft | 216 kts | 253° |
| 2026-04-28 22:51 | 14.89280 | -89.60691 | 12082 ft | 217 kts | 252° |
| 2026-04-28 22:51 | 14.88775 | -89.62154 | 12085 ft | 217 kts | 252° |
| 2026-04-28 22:52 | 14.88273 | -89.63619 | 12089 ft | 216 kts | 253° |
| 2026-04-28 22:52 | 14.87767 | -89.65087 | 12090 ft | 217 kts | 253° |
| 2026-04-28 22:52 | 14.87267 | -89.66551 | 12095 ft | 215 kts | 252° |
| 2026-04-28 22:52 | 14.86763 | -89.68008 | 12096 ft | 216 kts | 253° |
| 2026-04-28 22:53 | 14.86263 | -89.69453 | 12095 ft | 216 kts | 253° |
| 2026-04-28 22:53 | 14.85761 | -89.70912 | 12099 ft | 215 kts | 253° |
| 2026-04-28 22:53 | 14.85252 | -89.72366 | 12096 ft | 215 kts | 252° |
| 2026-04-28 22:53 | 14.84744 | -89.73820 | 12098 ft | 215 kts | 254° |
| 2026-04-28 22:54 | 14.84243 | -89.75276 | 12092 ft | 215 kts | 253° |
| 2026-04-28 22:54 | 14.83740 | -89.76729 | 12088 ft | 215 kts | 252° |
| 2026-04-28 22:54 | 14.83239 | -89.78187 | 12082 ft | 216 kts | 253° |
| 2026-04-28 22:54 | 14.82722 | -89.79642 | 12081 ft | 216 kts | 252° |
| 2026-04-28 22:55 | 14.82206 | -89.81093 | 12088 ft | 215 kts | 253° |
| 2026-04-28 22:55 | 14.81711 | -89.82545 | 12096 ft | 214 kts | 253° |
| 2026-04-28 22:55 | 14.81223 | -89.83999 | 12098 ft | 215 kts | 252° |
| 2026-04-28 22:55 | 14.80732 | -89.85449 | 12097 ft | 214 kts | 253° |
| 2026-04-28 22:56 | 14.80241 | -89.86903 | 12100 ft | 214 kts | 252° |
| 2026-04-28 22:56 | 14.79739 | -89.88358 | 12106 ft | 215 kts | 252° |
| 2026-04-28 22:56 | 14.79233 | -89.89811 | 12121 ft | 215 kts | 252° |
| 2026-04-28 22:56 | 14.78726 | -89.91265 | 12119 ft | 214 kts | 252° |
| 2026-04-28 22:57 | 14.78225 | -89.92707 | 12097 ft | 215 kts | 253° |
| 2026-04-28 22:57 | 14.77715 | -89.94185 | 11953 ft | 222 kts | 253° |
| 2026-04-28 22:57 | 14.77179 | -89.95717 | 11720 ft | 230 kts | 252° |
| 2026-04-28 22:57 | 14.76634 | -89.97293 | 11411 ft | 233 kts | 253° |
| 2026-04-28 22:58 | 14.76102 | -89.98873 | 11137 ft | 233 kts | 252° |
| 2026-04-28 22:58 | 14.75564 | -90.00450 | 10871 ft | 231 kts | 252° |
| 2026-04-28 22:58 | 14.75013 | -90.02019 | 10489 ft | 235 kts | 252° |
| 2026-04-28 22:58 | 14.74459 | -90.03618 | 10105 ft | 238 kts | 252° |
| 2026-04-28 22:59 | 14.73893 | -90.05239 | 9711 ft | 243 kts | 251° |
| 2026-04-28 22:59 | 14.73312 | -90.06901 | 9272 ft | 250 kts | 251° |
| 2026-04-28 22:59 | 14.72721 | -90.08599 | 8876 ft | 253 kts | 251° |
| 2026-04-28 22:59 | 14.72121 | -90.10318 | 8492 ft | 256 kts | 251° |
| 2026-04-28 23:00 | 14.71522 | -90.12059 | 8085 ft | 259 kts | 251° |
| 2026-04-28 23:00 | 14.70912 | -90.13807 | 7913 ft | 253 kts | 251° |
| 2026-04-28 23:00 | 14.70321 | -90.15491 | 7869 ft | 243 kts | 250° |
| 2026-04-28 23:00 | 14.69761 | -90.17119 | 7838 ft | 237 kts | 252° |
| 2026-04-28 23:01 | 14.69219 | -90.18702 | 7814 ft | 231 kts | 251° |
| 2026-04-28 23:01 | 14.68689 | -90.20235 | 7816 ft | 224 kts | 251° |
| 2026-04-28 23:01 | 14.68182 | -90.21735 | 7824 ft | 220 kts | 254° |
| 2026-04-28 23:01 | 14.67700 | -90.23221 | 7829 ft | 219 kts | 250° |
| 2026-04-28 23:02 | 14.67158 | -90.24685 | 7828 ft | 218 kts | 250° |
| 2026-04-28 23:02 | 14.66648 | -90.26140 | 7829 ft | 218 kts | 251° |
| 2026-04-28 23:02 | 14.66143 | -90.27637 | 7833 ft | 218 kts | 252° |
| 2026-04-28 23:02 | 14.65662 | -90.29113 | 7836 ft | 217 kts | 252° |
| 2026-04-28 23:03 | 14.65182 | -90.30592 | 7812 ft | 215 kts | 252° |
| 2026-04-28 23:03 | 14.64714 | -90.32053 | 7834 ft | 213 kts | 251° |
| 2026-04-28 23:03 | 14.64223 | -90.33496 | 7838 ft | 213 kts | 250° |
| 2026-04-28 23:03 | 14.63701 | -90.34932 | 7832 ft | 214 kts | 249° |
| 2026-04-28 23:04 | 14.63157 | -90.36360 | 7838 ft | 215 kts | 248° |
| 2026-04-28 23:04 | 14.62093 | -90.39248 | 7842 ft | 215 kts | 250° |
| 2026-04-28 23:04 | 14.61579 | -90.40701 | 7840 ft | 214 kts | 250° |
| 2026-04-28 23:05 | 14.61085 | -90.42154 | 7852 ft | 215 kts | 250° |
| 2026-04-28 23:05 | 14.60594 | -90.43611 | 7833 ft | 216 kts | 250° |
| 2026-04-28 23:05 | 14.60081 | -90.45066 | 7844 ft | 215 kts | 250° |
| 2026-04-28 23:05 | 14.59575 | -90.46487 | 7840 ft | 215 kts | 249° |
| 2026-04-28 23:06 | 14.59059 | -90.47926 | 7846 ft | 214 kts | 249° |
| 2026-04-28 23:06 | 14.58547 | -90.49363 | 7845 ft | 214 kts | 250° |
| 2026-04-28 23:06 | 14.58040 | -90.50800 | 7845 ft | 212 kts | 250° |
| 2026-04-28 23:06 | 14.57421 | -90.52175 | 7850 ft | 210 kts | 231° |
| 2026-04-28 23:07 | 14.56275 | -90.53076 | 7857 ft | 209 kts | 201° |
| 2026-04-28 23:07 | 14.54876 | -90.53435 | 7855 ft | 207 kts | 177° |
| 2026-04-28 23:07 | 14.53507 | -90.53082 | 7845 ft | 201 kts | 156° |
| 2026-04-28 23:07 | 14.52148 | -90.52784 | 7847 ft | 200 kts | 173° |
| 2026-04-28 23:08 | 14.50751 | -90.52851 | 7857 ft | 203 kts | 180° |
| 2026-04-28 23:08 | 14.49336 | -90.52878 | 7852 ft | 204 kts | 174° |
| 2026-04-28 23:08 | 14.47923 | -90.52778 | 7852 ft | 203 kts | 169° |
| 2026-04-28 23:08 | 14.46647 | -90.52226 | 7836 ft | 199 kts | 137° |
| 2026-04-28 23:09 | 14.45907 | -90.51091 | 7833 ft | 189 kts | 105° |
| 2026-04-28 23:09 | 14.45878 | -90.49774 | 7852 ft | 185 kts | 74° |
| 2026-04-28 23:09 | 14.46534 | -90.48661 | 7849 ft | 184 kts | 41° |
| 2026-04-28 23:09 | 14.47682 | -90.48100 | 7850 ft | 186 kts | 10° |
| 2026-04-28 23:10 | 14.48968 | -90.48280 | 7848 ft | 192 kts | 338° |
| 2026-04-28 23:10 | 14.49986 | -90.49137 | 7843 ft | 193 kts | 307° |
| 2026-04-28 23:10 | 14.50720 | -90.50286 | 7847 ft | 191 kts | 306° |
| 2026-04-28 23:10 | 14.51504 | -90.51396 | 7861 ft | 193 kts | 310° |
| 2026-04-28 23:11 | 14.52413 | -90.52419 | 7841 ft | 194 kts | 325° |
| 2026-04-28 23:11 | 14.53616 | -90.53022 | 7858 ft | 193 kts | 346° |
| 2026-04-28 23:11 | 14.54938 | -90.53147 | 7849 ft | 192 kts | 9° |
| 2026-04-28 23:11 | 14.56255 | -90.53215 | 7853 ft | 190 kts | 353° |
| 2026-04-28 23:12 | 14.57592 | -90.53294 | 7840 ft | 193 kts | 359° |
| 2026-04-28 23:12 | 14.58934 | -90.53450 | 7850 ft | 196 kts | 355° |
| 2026-04-28 23:12 | 14.60294 | -90.53597 | 7800 ft | 198 kts | 357° |
| 2026-04-28 23:12 | 14.61700 | -90.53722 | 7657 ft | 206 kts | 357° |
| 2026-04-28 23:13 | 14.63082 | -90.53844 | 7530 ft | 189 kts | 359° |
| 2026-04-28 23:13 | 14.64362 | -90.53949 | 7320 ft | 184 kts | 359° |
| 2026-04-28 23:13 | 14.65618 | -90.54056 | 7263 ft | 177 kts | 358° |
| 2026-04-28 23:13 | 14.66811 | -90.54162 | 7245 ft | 167 kts | 358° |
| 2026-04-28 23:14 | 14.67935 | -90.54272 | 7245 ft | 157 kts | 357° |
| 2026-04-28 23:14 | 14.69012 | -90.54364 | 7255 ft | 152 kts | 7° |
| 2026-04-28 23:14 | 14.69926 | -90.53957 | 7259 ft | 141 kts | 47° |
| 2026-04-28 23:14 | 14.70307 | -90.53076 | 7262 ft | 136 kts | 88° |
| 2026-04-28 23:15 | 14.69993 | -90.52189 | 7253 ft | 134 kts | 129° |
| 2026-04-28 23:15 | 14.69160 | -90.51756 | 7266 ft | 137 kts | 161° |
| 2026-04-28 23:15 | 14.68219 | -90.51528 | 7287 ft | 141 kts | 163° |
| 2026-04-28 23:15 | 14.67251 | -90.51310 | 7280 ft | 146 kts | 163° |
| 2026-04-28 23:16 | 14.66214 | -90.51063 | 7103 ft | 160 kts | 164° |
| 2026-04-28 23:16 | 14.65068 | -90.50864 | 6955 ft | 176 kts | 169° |
| 2026-04-28 23:16 | 14.63881 | -90.50863 | 6759 ft | 162 kts | 186° |
| 2026-04-28 23:16 | 14.62890 | -90.51228 | 6471 ft | 139 kts | 207° |
| 2026-04-28 23:17 | 14.62085 | -90.51694 | 6164 ft | 128 kts | 203° |
| 2026-04-28 23:17 | 14.61257 | -90.52029 | 5768 ft | 125 kts | 194° |
| 2026-04-28 23:17 | 14.60480 | -90.52230 | 5343 ft | 108 kts | 183° |
| 2026-04-28 23:17 | 14.59784 | -90.52310 | 5042 ft | 93 kts | 189° |
| 2026-04-28 23:18 | 14.59195 | -90.52483 | 4943 ft | 81 kts | 193° |
| 2026-04-28 23:18 | 14.58805 | -90.52603 | 4929 ft | 17 kts | 197° |
| 2026-04-28 23:18 | 14.58713 | -90.52561 | 4927 ft | 19 kts | 101° |
| 2026-04-28 23:18 | 14.58722 | -90.52457 | 4928 ft | 13 kts | 51° |
| 2026-04-28 23:19 | 14.58783 | -90.52414 | 4930 ft | 9 kts | 32° |
| 2026-04-28 23:19 | 14.58788 | -90.52384 | 4931 ft | 0 kts | 115° |